Time;durP1;ratioP1;P1;durP2;ratioP2;P2;SDS_P1;SDS_P2;PMS_P1;PMS_P2;Temp;Humidity;BMP_temperature;BMP_pressure;BME280_temperature;BME280_humidity;BME280_pressure;Samples;Min_cycle;Max_cycle;Signal;HPM_P1;HPM_P2
2022/05/19 00:01:36;;;;;;;7.93;3.60;;;;;;;10.58;66.93;101597.34;5093507;28;20031;-65
2022/05/19 00:04:02;;;;;;;8.43;3.97;;;;;;;10.49;66.96;101592.56;5112259;28;20382;-64
2022/05/19 00:06:28;;;;;;;12.05;4.07;;;;;;;10.44;67.08;101581.28;5111828;28;20036;-64
2022/05/19 00:08:53;;;;;;;11.40;4.13;;;;;;;10.40;67.13;101590.50;5111446;28;20035;-65
2022/05/19 00:11:23;;;;;;;12.30;3.47;;;;;;;10.35;67.57;101595.34;5111778;28;20548;-65
2022/05/19 00:13:48;;;;;;;11.25;3.85;;;;;;;10.37;67.41;101604.13;5111532;28;20047;-64
2022/05/19 00:16:14;;;;;;;14.52;3.47;;;;;;;10.33;67.70;101603.47;5111541;28;20387;-64
2022/05/19 00:18:39;;;;;;;11.13;3.83;;;;;;;10.29;67.59;101609.97;5111537;28;20084;-64
2022/05/19 00:21:05;;;;;;;13.23;4.60;;;;;;;10.18;68.15;101591.06;5111753;28;20022;-65
2022/05/19 00:23:30;;;;;;;11.82;3.35;;;;;;;10.19;68.39;101600.81;5111421;28;20098;-65
2022/05/19 00:25:56;;;;;;;8.85;3.95;;;;;;;10.17;69.07;101601.91;5110076;28;20066;-65
2022/05/19 00:28:21;;;;;;;11.50;4.05;;;;;;;10.13;68.95;101603.06;5110035;28;20097;-64
2022/05/19 00:30:47;;;;;;;11.27;3.70;;;;;;;10.07;68.86;101598.97;5109856;28;20459;-64
2022/05/19 00:33:14;;;;;;;11.75;3.88;;;;;;;10.07;68.55;101609.69;5110058;28;20118;-63
2022/05/19 00:35:41;;;;;;;11.13;3.83;;;;;;;10.06;69.06;101610.63;5109783;28;20080;-65
2022/05/19 00:38:07;;;;;;;10.57;3.90;;;;;;;9.99;69.66;101597.72;5091431;28;20542;-64
2022/05/19 00:40:33;;;;;;;12.13;3.80;;;;;;;10.06;68.88;101609.75;5109950;28;20027;-64
2022/05/19 00:42:59;;;;;;;9.82;3.92;;;;;;;10.04;68.55;101619.72;5091421;28;20088;-64
2022/05/19 00:45:33;;;;;;;8.88;3.63;;;;;;;9.97;68.77;101615.72;5109909;28;20035;-64
2022/05/19 00:48:12;;;;;;;10.10;3.45;;;;;;;9.91;69.04;101610.75;5109780;28;20027;-64
2022/05/19 00:50:53;;;;;;;9.15;3.40;;;;;;;9.87;69.23;101615.44;5109534;28;20015;-64
2022/05/19 00:53:36;;;;;;;9.93;3.75;;;;;;;9.85;69.47;101617.38;5109333;28;20023;-64
2022/05/19 00:56:10;;;;;;;7.43;3.20;;;;;;;9.79;69.58;101611.53;5110046;28;20059;-64
2022/05/19 00:58:44;;;;;;;13.70;4.45;;;;;;;9.71;70.55;101612.03;5091394;28;20020;-65
2022/05/19 01:01:11;;;;;;;13.07;4.13;;;;;;;9.73;70.22;101615.47;5109433;28;20045;-64
2022/05/19 01:03:45;;;;;;;9.45;3.15;;;;;;;9.68;70.93;101614.03;5109894;28;20059;-64
2022/05/19 01:06:16;;;;;;;10.68;3.30;;;;;;;9.66;70.65;101619.50;5091241;28;20035;-64
2022/05/19 01:09:01;;;;;;;12.43;3.67;;;;;;;9.61;70.39;101624.25;5109679;28;20023;-64
2022/05/19 01:11:27;;;;;;;11.63;3.90;;;;;;;9.44;69.98;101589.66;5109587;28;20072;-64
2022/05/19 01:13:53;;;;;;;10.40;3.15;;;;;;;9.58;70.08;101619.13;5091112;28;20378;-64
2022/05/19 01:16:19;;;;;;;7.35;3.97;;;;;;;9.46;69.91;101611.84;5109584;28;20046;-64
2022/05/19 01:18:45;;;;;;;7.47;2.88;;;;;;;9.48;70.90;101623.31;5109167;28;20023;-64
2022/05/19 01:21:15;;;;;;;10.70;3.63;;;;;;;9.46;71.80;101617.22;5109171;28;20023;-64
2022/05/19 01:24:03;;;;;;;13.82;3.25;;;;;;;9.40;71.24;101606.00;5090581;28;20397;-64
2022/05/19 01:26:28;;;;;;;10.32;3.92;;;;;;;9.44;71.84;101616.44;5063704;28;1253101;-64
2022/05/19 01:28:57;;;;;;;9.88;3.47;;;;;;;9.37;71.69;101609.75;5109961;28;20035;-65
2022/05/19 01:31:38;;;;;;;8.85;3.22;;;;;;;9.38;71.55;101610.63;5110065;28;20043;-64
2022/05/19 01:34:06;;;;;;;11.00;3.90;;;;;;;9.46;72.04;101624.38;5108122;28;20024;-64
2022/05/19 01:36:32;;;;;;;12.90;2.95;;;;;;;9.42;70.95;101615.69;5109816;28;20542;-63
2022/05/19 01:38:59;;;;;;;13.75;3.65;;;;;;;9.36;70.94;101610.72;5109803;28;20023;-64
2022/05/19 01:41:32;;;;;;;8.70;3.70;;;;;;;9.36;70.83;101608.03;5109952;28;20042;-64
2022/05/19 01:44:04;;;;;;;15.32;4.13;;;;;;;9.40;71.00;101614.91;5109887;28;20035;-64
2022/05/19 01:46:36;;;;;;;11.98;3.70;;;;;;;9.32;70.75;101617.19;5109871;28;20032;-65
2022/05/19 01:49:04;;;;;;;8.75;3.38;;;;;;;9.32;70.92;101614.50;5109680;28;20027;-64
2022/05/19 01:51:36;;;;;;;13.95;4.57;;;;;;;9.25;71.40;101613.19;5109729;28;20035;-65
2022/05/19 01:54:04;;;;;;;10.50;3.92;;;;;;;9.23;71.42;101609.75;5109871;28;20042;-64
2022/05/19 01:56:43;;;;;;;12.55;4.05;;;;;;;9.18;71.76;101610.03;5109682;28;20039;-64
2022/05/19 01:59:11;;;;;;;11.02;3.63;;;;;;;9.15;71.87;101620.06;5109835;28;20021;-64
2022/05/19 02:01:42;;;;;;;14.60;4.40;;;;;;;9.14;71.77;101623.69;5109781;28;20395;-63
2022/05/19 02:04:17;;;;;;;14.98;3.75;;;;;;;9.09;72.50;101631.13;5109085;28;20532;-64
2022/05/19 02:06:52;;;;;;;11.25;4.30;;;;;;;9.02;73.05;101619.09;5106585;28;20071;-64
2022/05/19 02:09:36;;;;;;;10.35;3.50;;;;;;;9.05;73.14;101622.44;5109496;28;20027;-64
2022/05/19 02:12:02;;;;;;;13.50;4.72;;;;;;;9.04;72.51;101622.53;5108926;28;20547;-64
2022/05/19 02:14:37;;;;;;;10.07;3.95;;;;;;;9.03;73.04;101626.19;5108579;28;20032;-64
2022/05/19 02:17:08;;;;;;;8.02;3.72;;;;;;;9.00;73.26;101621.84;5108590;28;20367;-64
2022/05/19 02:19:40;;;;;;;15.82;4.13;;;;;;;8.96;72.60;101624.81;5108512;28;20036;-65
2022/05/19 02:22:12;;;;;;;14.05;4.10;;;;;;;8.88;72.28;101621.75;5107341;28;20090;-64
2022/05/19 02:24:42;;;;;;;9.25;3.67;;;;;;;8.89;72.87;101628.81;5106472;28;20467;-64
2022/05/19 02:27:55;;;;;;;12.80;3.92;;;;;;;8.88;73.53;101627.09;5109307;28;20098;-64
2022/05/19 02:30:26;;;;;;;14.00;4.10;;;;;;;8.83;73.58;101624.69;5006174;28;20038;-64
2022/05/19 02:32:52;;;;;;;10.88;4.00;;;;;;;8.82;73.06;101633.69;5081811;28;20055;-64
2022/05/19 02:35:18;;;;;;;11.68;3.88;;;;;;;8.74;73.48;101619.88;5104065;28;20026;-65
2022/05/19 02:37:43;;;;;;;12.88;3.72;;;;;;;8.81;73.10;101628.41;5108665;28;20046;-64
2022/05/19 02:40:11;;;;;;;9.98;3.60;;;;;;;8.77;71.91;101624.22;5108841;28;20102;-65
2022/05/19 02:42:37;;;;;;;14.65;3.80;;;;;;;8.73;72.00;101628.00;5108735;28;20493;-64
2022/05/19 02:45:03;;;;;;;9.68;3.42;;;;;;;8.71;72.08;101622.72;5108112;28;20482;-65
2022/05/19 02:47:29;;;;;;;7.28;3.80;;;;;;;8.50;72.40;101596.41;5106400;28;20035;-64
2022/05/19 02:49:54;;;;;;;14.93;4.18;;;;;;;8.67;72.65;101636.38;5107462;28;20032;-64
2022/05/19 02:52:19;;;;;;;10.95;3.67;;;;;;;8.59;73.20;101633.31;5107400;28;20031;-65
2022/05/19 02:54:45;;;;;;;6.28;3.70;;;;;;;8.61;72.81;101645.63;5108061;28;20026;-64
2022/05/19 02:57:11;;;;;;;8.25;3.33;;;;;;;8.59;73.13;101642.22;5107916;28;20019;-64
2022/05/19 02:59:36;;;;;;;10.15;3.50;;;;;;;8.49;73.84;101626.78;5107734;28;20081;-64
2022/05/19 03:02:02;;;;;;;18.42;4.20;;;;;;;8.56;73.37;101642.38;5107675;28;20092;-64
2022/05/19 03:04:28;;;;;;;12.55;4.22;;;;;;;8.56;73.67;101638.84;5108211;28;20085;-64
2022/05/19 03:06:53;;;;;;;12.93;3.75;;;;;;;8.46;73.85;101629.63;5108552;28;20027;-64
2022/05/19 03:09:19;;;;;;;11.63;4.30;;;;;;;8.51;74.48;101633.75;5108418;28;20716;-64
2022/05/19 03:11:44;;;;;;;10.50;3.53;;;;;;;8.40;75.42;101619.28;5108681;28;20031;-65
2022/05/19 03:14:10;;;;;;;10.55;3.60;;;;;;;8.43;75.64;101619.97;5108774;28;20050;-64
2022/05/19 03:16:38;;;;;;;16.98;4.80;;;;;;;8.46;75.42;101635.84;5107947;28;20109;-64
2022/05/19 03:19:03;;;;;;;14.52;3.50;;;;;;;8.47;76.67;101634.00;5089639;28;20027;-64
2022/05/19 03:21:29;;;;;;;17.58;3.75;;;;;;;8.47;75.85;101634.88;5108368;28;20035;-64
2022/05/19 03:23:54;;;;;;;24.90;5.50;;;;;;;8.33;75.95;101618.81;5108064;28;20032;-65
2022/05/19 03:26:20;;;;;;;14.50;3.97;;;;;;;8.49;74.99;101646.38;5089613;28;20039;-64
2022/05/19 03:28:45;;;;;;;8.00;4.18;;;;;;;8.51;74.90;101648.91;5108032;28;20034;-64
2022/05/19 03:31:10;;;;;;;16.45;4.55;;;;;;;8.49;75.67;101650.84;5108423;28;20106;-64
2022/05/19 03:33:36;;;;;;;14.60;3.85;;;;;;;8.52;74.89;101648.84;5108105;28;20631;-64
2022/05/19 03:36:04;;;;;;;7.25;3.63;;;;;;;8.52;74.95;101654.19;5107947;28;20023;-64
2022/05/19 03:38:29;;;;;;;10.43;4.05;;;;;;;8.53;74.51;101663.06;5108141;28;20027;-65
2022/05/19 03:40:55;;;;;;;13.73;4.47;;;;;;;8.52;74.61;101661.38;5107929;28;20405;-64
2022/05/19 03:43:20;;;;;;;7.55;3.92;;;;;;;8.51;74.46;101671.19;5107909;28;20077;-64
2022/05/19 03:45:47;;;;;;;8.73;4.38;;;;;;;8.50;74.76;101663.25;5107939;28;20028;-64
2022/05/19 03:48:13;;;;;;;18.05;4.15;;;;;;;8.60;75.14;101676.00;5108348;28;20032;-64
2022/05/19 03:50:42;;;;;;;26.30;4.18;;;;;;;8.63;75.58;101674.97;5107860;28;20042;-63
2022/05/19 03:53:07;;;;;;;24.30;5.10;;;;;;;8.70;75.63;101679.88;5107970;28;20030;-63
2022/05/19 03:55:33;;;;;;;18.60;4.88;;;;;;;8.81;75.23;101687.28;5108081;28;20027;-64
2022/05/19 03:57:58;;;;;;;17.92;5.13;;;;;;;8.91;75.28;101688.44;5107822;28;20024;-64
2022/05/19 04:00:24;;;;;;;20.25;5.20;;;;;;;9.04;74.44;101686.75;5107834;28;20108;-63
2022/05/19 04:02:49;;;;;;;18.05;4.45;;;;;;;9.16;74.31;101678.84;5107760;28;20048;-63
2022/05/19 04:05:15;;;;;;;13.85;4.50;;;;;;;9.40;73.22;101695.25;5089593;28;20035;-64
2022/05/19 04:07:41;;;;;;;14.88;4.03;;;;;;;9.58;73.45;101696.81;5108111;28;20031;-65
2022/05/19 04:10:08;;;;;;;13.80;4.57;;;;;;;9.77;72.93;101691.16;5089205;28;20020;-64
2022/05/19 04:12:34;;;;;;;9.27;3.92;;;;;;;9.96;71.53;101678.31;5107869;28;20046;-64
2022/05/19 04:15:00;;;;;;;12.23;4.00;;;;;;;10.20;70.29;101691.06;5107722;28;20024;-65
2022/05/19 04:17:25;;;;;;;10.23;3.92;;;;;;;10.41;68.64;101680.72;5107599;28;20483;-65
2022/05/19 04:19:51;;;;;;;10.45;3.88;;;;;;;10.62;68.02;101679.31;5107691;28;20031;-64
2022/05/19 04:22:17;;;;;;;9.50;3.78;;;;;;;10.90;66.73;101688.09;5107992;28;20035;-65
2022/05/19 04:24:43;;;;;;;14.73;4.13;;;;;;;11.15;65.24;101685.47;5107546;28;20047;-64
2022/05/19 04:27:11;;;;;;;11.38;4.22;;;;;;;11.39;65.21;101685.63;5107738;28;20490;-65
2022/05/19 04:29:37;;;;;;;9.65;3.90;;;;;;;11.55;64.30;101679.03;5108580;28;20027;-65
2022/05/19 04:32:03;;;;;;;14.32;4.50;;;;;;;11.83;63.63;101682.53;5111321;28;20058;-64
2022/05/19 04:34:29;;;;;;;14.40;3.72;;;;;;;12.06;62.92;101681.72;5111425;28;20112;-64
2022/05/19 04:36:54;;;;;;;19.58;4.07;;;;;;;12.25;62.82;101682.94;5111171;28;20505;-65
2022/05/19 04:39:20;;;;;;;43.22;6.07;;;;;;;12.43;62.46;101681.63;5111368;28;20031;-64
2022/05/19 04:41:45;;;;;;;22.58;4.28;;;;;;;12.60;61.47;101683.03;5111370;28;20027;-63
2022/05/19 04:44:11;;;;;;;15.18;4.10;;;;;;;12.72;61.22;101676.75;5092621;28;20027;-64
2022/05/19 04:46:37;;;;;;;11.45;3.63;;;;;;;12.97;61.00;101687.38;5110779;28;20035;-64
2022/05/19 04:49:02;;;;;;;11.88;3.78;;;;;;;13.09;60.77;101678.41;5110045;28;20040;-64
2022/05/19 04:51:27;;;;;;;12.88;4.40;;;;;;;13.30;61.00;101684.81;5110281;28;20466;-64
2022/05/19 04:53:53;;;;;;;19.55;4.97;;;;;;;13.41;60.60;101682.16;5092093;28;20549;-63
2022/05/19 04:56:18;;;;;;;11.45;3.50;;;;;;;13.61;60.05;101684.16;5091914;28;20019;-63
2022/05/19 04:58:44;;;;;;;10.35;3.80;;;;;;;13.76;59.90;101674.84;5110671;28;20035;-64
2022/05/19 05:01:09;;;;;;;17.08;4.03;;;;;;;13.98;59.80;101680.25;5109956;28;20027;-64
2022/05/19 05:03:35;;;;;;;15.68;4.70;;;;;;;14.17;59.83;101679.59;5110132;28;20134;-63
2022/05/19 05:06:00;;;;;;;16.55;5.07;;;;;;;14.36;59.63;101686.13;5110366;28;20066;-65
2022/05/19 05:08:26;;;;;;;20.27;7.10;;;;;;;14.60;59.43;101683.22;5091508;28;20102;-63
2022/05/19 05:10:51;;;;;;;35.33;15.23;;;;;;;14.83;57.81;101674.09;5110226;28;20032;-64
2022/05/19 05:13:17;;;;;;;48.97;24.85;;;;;;;15.09;57.02;101680.84;5110370;28;20088;-64
2022/05/19 05:15:43;;;;;;;62.83;26.25;;;;;;;15.23;54.39;101667.88;5110283;28;20031;-64
2022/05/19 05:18:09;;;;;;;44.22;23.92;;;;;;;15.39;54.12;101660.19;5107671;28;20027;-65
2022/05/19 05:20:37;;;;;;;42.15;18.92;;;;;;;15.72;53.07;101678.88;5110010;28;20106;-65
2022/05/19 05:23:03;;;;;;;39.08;15.10;;;;;;;15.81;52.38;101667.22;5109927;28;20713;-64
2022/05/19 05:25:29;;;;;;;28.10;12.27;;;;;;;16.01;52.27;101681.72;5090585;28;20100;-64
2022/05/19 05:27:57;;;;;;;18.17;7.40;;;;;;;16.15;52.29;101677.78;5109461;28;20039;-64
2022/05/19 05:30:23;;;;;;;16.38;4.85;;;;;;;16.32;52.41;101680.69;5109544;28;20034;-64
2022/05/19 05:32:49;;;;;;;13.10;4.68;;;;;;;16.45;52.14;101675.91;5109344;28;20036;-64
2022/05/19 05:35:14;;;;;;;5.93;3.13;;;;;;;16.54;52.34;101674.22;5109549;28;20517;-64
2022/05/19 05:37:40;;;;;;;7.80;2.90;;;;;;;16.71;52.19;101682.50;5109588;28;20043;-64
2022/05/19 05:40:10;;;;;;;9.48;2.85;;;;;;;16.83;52.06;101688.66;5108031;28;20046;-64
2022/05/19 05:42:37;;;;;;;8.23;2.35;;;;;;;16.94;51.64;101685.78;5109243;28;20035;-65
2022/05/19 05:45:05;;;;;;;10.75;3.72;;;;;;;17.04;49.75;101689.34;5109059;28;20038;-65
2022/05/19 05:47:30;;;;;;;7.07;2.85;;;;;;;17.16;48.22;101688.22;5109415;28;20031;-65
2022/05/19 05:49:56;;;;;;;9.02;3.15;;;;;;;17.25;47.52;101682.78;5109063;28;20035;-65
2022/05/19 05:52:21;;;;;;;10.18;3.72;;;;;;;17.37;45.70;101687.06;5109383;28;20055;-65
2022/05/19 05:54:47;;;;;;;4.82;2.85;;;;;;;17.55;45.88;101688.06;5109126;28;20352;-65
2022/05/19 05:57:14;;;;;;;8.57;2.88;;;;;;;17.60;45.41;101680.34;5109144;28;20526;-64
2022/05/19 05:59:40;;;;;;;7.68;3.28;;;;;;;17.80;44.89;101690.13;5109154;28;20428;-64
2022/05/19 06:02:06;;;;;;;9.23;2.72;;;;;;;17.96;44.76;101701.22;5108841;28;20031;-64
2022/05/19 06:04:31;;;;;;;6.75;2.97;;;;;;;18.03;43.18;101691.47;5109068;28;20076;-64
2022/05/19 06:06:57;;;;;;;10.30;3.83;;;;;;;18.19;43.33;101693.56;5108947;28;20092;-65
2022/05/19 06:09:22;;;;;;;9.27;3.58;;;;;;;18.33;43.06;101698.47;5108690;28;20034;-64
2022/05/19 06:11:48;;;;;;;12.55;3.00;;;;;;;18.41;41.64;101684.19;5090707;28;20027;-64
2022/05/19 06:14:13;;;;;;;13.50;3.67;;;;;;;18.64;41.84;101696.34;5108514;28;20038;-64
2022/05/19 06:16:39;;;;;;;6.55;2.97;;;;;;;18.79;40.45;101703.81;5108580;28;20114;-64
2022/05/19 06:19:04;;;;;;;10.93;2.63;;;;;;;18.91;40.53;101705.28;5108655;28;20036;-64
2022/05/19 06:21:30;;;;;;;9.70;2.88;;;;;;;19.06;40.37;101703.72;5090118;28;20039;-64
2022/05/19 06:23:55;;;;;;;9.90;2.35;;;;;;;19.22;38.95;101709.31;5108360;28;20035;-63
2022/05/19 06:26:21;;;;;;;8.90;2.60;;;;;;;19.32;38.11;101706.56;5108271;28;20428;-64
2022/05/19 06:28:47;;;;;;;16.02;2.75;;;;;;;19.35;37.50;101685.31;5108299;28;20035;-64
2022/05/19 06:31:13;;;;;;;11.85;2.60;;;;;;;19.56;37.32;101704.88;5108514;28;20047;-63
2022/05/19 06:33:38;;;;;;;9.50;2.47;;;;;;;19.65;36.46;101695.78;5089868;28;20487;-64
2022/05/19 06:36:04;;;;;;;4.28;2.45;;;;;;;19.85;36.11;101696.41;5107933;28;20023;-65
2022/05/19 06:38:31;;;;;;;11.75;4.28;;;;;;;20.01;35.52;101700.09;5108705;28;20394;-64
2022/05/19 06:42:00;;;;;;;9.23;3.85;;;;;;;20.13;35.32;101696.06;5108488;28;20028;-64
2022/05/19 06:43:46;;;;;;;10.70;4.55;;;;;;;20.28;35.03;101688.13;5107259;28;20459;-64
2022/05/19 06:46:12;;;;;;;9.45;4.93;;;;;;;20.52;35.16;101690.09;5108437;28;20033;-64
2022/05/19 06:48:38;;;;;;;7.07;3.63;;;;;;;20.67;34.62;101688.47;5108564;28;20526;-64
2022/05/19 06:51:03;;;;;;;6.70;2.88;;;;;;;20.80;33.29;101688.81;5107602;28;20536;-64
2022/05/19 06:53:29;;;;;;;7.15;2.95;;;;;;;20.96;32.53;101688.91;5106179;28;20023;-64
2022/05/19 06:55:54;;;;;;;4.63;2.60;;;;;;;21.09;32.09;101684.63;5102748;28;20063;-64
2022/05/19 06:58:20;;;;;;;2.67;1.45;;;;;;;21.30;31.77;101692.31;5105132;28;20032;-64
2022/05/19 07:00:45;;;;;;;5.53;2.13;;;;;;;21.35;31.38;101674.41;5106108;28;20031;-65
2022/05/19 07:03:11;;;;;;;5.35;2.17;;;;;;;21.59;31.56;101688.03;5107970;28;20038;-64
2022/05/19 07:05:38;;;;;;;11.20;1.77;;;;;;;21.73;30.49;101687.38;5107497;28;20024;-64
2022/05/19 07:08:04;;;;;;;7.03;1.65;;;;;;;21.87;30.14;101691.28;5106732;28;20023;-64
2022/05/19 07:10:30;;;;;;;8.57;1.77;;;;;;;21.97;29.95;101684.59;5107522;28;20029;-64
2022/05/19 07:12:56;;;;;;;5.25;1.92;;;;;;;22.13;29.37;101691.88;5107734;28;20114;-64
2022/05/19 07:15:21;;;;;;;9.23;2.50;;;;;;;22.18;28.97;101681.25;5107964;28;20031;-65
2022/05/19 07:17:48;;;;;;;7.65;1.30;;;;;;;22.28;29.05;101687.41;5107821;28;20093;-65
2022/05/19 07:22:57;;;;;;;2.05;1.10;;;;;;;22.54;28.16;101690.72;5108113;28;20117;-64
2022/05/19 07:25:23;;;;;;;1.73;0.80;;;;;;;22.63;27.75;101689.63;5107709;28;20043;-64
2022/05/19 07:27:49;;;;;;;5.03;1.00;;;;;;;22.73;27.81;101687.50;5107780;28;20044;-65
2022/05/19 07:30:15;;;;;;;3.38;1.10;;;;;;;22.77;26.83;101675.19;5107910;28;20127;-64
2022/05/19 07:32:41;;;;;;;1.55;0.80;;;;;;;22.90;26.71;101691.00;5107595;28;20023;-64
2022/05/19 07:35:09;;;;;;;5.38;1.15;;;;;;;22.86;27.05;101676.00;5107740;28;20042;-64
2022/05/19 07:37:35;;;;;;;9.60;3.97;;;;;;;23.06;27.64;101697.25;5107584;28;20403;-64
2022/05/19 07:40:01;;;;;;;3.42;1.17;;;;;;;23.17;27.04;101694.06;5107669;28;20034;-65
2022/05/19 07:42:27;;;;;;;3.60;1.40;;;;;;;23.24;26.98;101688.72;5107773;28;20110;-64
2022/05/19 07:44:52;;;;;;;2.28;1.13;;;;;;;23.41;26.61;101677.44;5089149;28;20042;-65
2022/05/19 07:47:19;;;;;;;2.72;1.13;;;;;;;23.57;26.19;101698.38;5107794;28;20106;-64
2022/05/19 07:49:45;;;;;;;2.17;0.90;;;;;;;23.64;26.24;101691.97;5107223;28;20127;-64
2022/05/19 07:52:10;;;;;;;2.17;1.02;;;;;;;23.66;26.33;101687.16;5107474;28;20059;-65
2022/05/19 07:54:36;;;;;;;3.47;1.00;;;;;;;23.70;26.58;101688.47;5107571;28;20040;-64
2022/05/19 07:57:02;;;;;;;4.97;0.98;;;;;;;23.76;26.32;101682.25;5107397;28;20107;-64
2022/05/19 07:59:27;;;;;;;1.40;0.80;;;;;;;23.75;26.06;101677.81;5107652;28;20471;-64
2022/05/19 08:01:55;;;;;;;3.30;0.88;;;;;;;23.85;25.75;101677.53;5107570;28;20032;-69
2022/05/19 08:04:22;;;;;;;4.75;0.98;;;;;;;23.78;25.46;101682.06;5110487;28;20031;-69
2022/05/19 08:06:49;;;;;;;1.02;0.70;;;;;;;23.89;26.15;101685.19;5111193;28;20026;-69
2022/05/19 08:11:59;;;;;;;2.22;0.85;;;;;;;24.10;26.26;101682.59;5111428;28;20082;-70
2022/05/19 08:17:10;;;;;;;2.90;0.80;;;;;;;24.36;25.14;101696.69;5111605;28;20031;-70
2022/05/19 08:19:37;;;;;;;1.83;0.75;;;;;;;24.44;25.25;101696.56;5092773;28;20035;-70
2022/05/19 08:22:02;;;;;;;0.95;0.85;;;;;;;24.53;24.87;101691.00;5111176;28;20043;-69
2022/05/19 08:24:30;;;;;;;3.50;0.95;;;;;;;24.58;24.78;101692.09;5092583;28;20112;-69
2022/05/19 08:26:57;;;;;;;4.35;0.68;;;;;;;24.68;24.70;101689.06;5111172;28;20042;-70
2022/05/19 08:29:24;;;;;;;3.20;0.80;;;;;;;24.72;24.67;101685.75;5111357;28;20110;-70
2022/05/19 08:31:49;;;;;;;2.47;0.77;;;;;;;24.82;24.71;101686.28;5092350;28;20080;-70
2022/05/19 08:34:15;;;;;;;1.52;0.80;;;;;;;24.89;24.81;101686.38;5111016;28;20031;-70
2022/05/19 08:36:41;;;;;;;1.58;0.73;;;;;;;24.96;24.34;101681.81;5111031;28;20091;-69
2022/05/19 08:39:07;;;;;;;1.20;0.60;;;;;;;24.97;24.58;101689.00;5110924;28;20024;-70
2022/05/19 08:41:47;;;;;;;1.48;0.98;;;;;;;24.98;24.59;101686.06;5110784;28;20024;-70
2022/05/19 08:44:29;;;;;;;1.42;0.73;;;;;;;24.97;24.57;101678.00;5110997;28;20081;-69
2022/05/19 08:46:57;;;;;;;1.27;0.75;;;;;;;25.04;24.17;101676.19;5110765;28;20050;-70
2022/05/19 08:49:46;;;;;;;2.95;1.33;;;;;;;25.01;23.84;101687.56;5092220;28;20517;-69
2022/05/19 08:52:15;;;;;;;3.03;0.80;;;;;;;25.03;24.32;101677.22;5110961;28;20032;-70
2022/05/19 08:54:44;;;;;;;3.28;0.95;;;;;;;25.08;24.46;101683.00;5110710;28;20012;-70
2022/05/19 08:57:23;;;;;;;3.65;1.00;;;;;;;25.10;24.22;101667.16;5110521;28;20030;-70
2022/05/19 09:00:04;;;;;;;2.97;0.88;;;;;;;25.13;23.56;101675.88;5110339;28;20448;-70
2022/05/19 09:02:56;;;;;;;2.47;0.93;;;;;;;25.17;24.38;101670.81;5110870;28;20140;-70
2022/05/19 09:05:52;;;;;;;1.20;0.70;;;;;;;25.21;24.38;101672.97;5110363;28;20020;-70
2022/05/19 09:08:24;;;;;;;1.75;0.80;;;;;;;25.25;24.34;101676.19;5091983;28;20123;-70
2022/05/19 09:11:14;;;;;;;3.63;1.00;;;;;;;25.25;24.38;101666.06;5110235;28;20031;-69
2022/05/19 09:13:51;;;;;;;2.78;0.98;;;;;;;25.32;24.72;101668.91;5091720;28;20055;-70
2022/05/19 09:16:21;;;;;;;5.03;0.80;;;;;;;25.30;24.91;101658.06;5110727;28;20098;-70
2022/05/19 09:18:55;;;;;;;4.15;0.77;;;;;;;25.28;25.27;101653.81;5110539;28;20106;-70
2022/05/19 09:21:21;;;;;;;2.20;0.70;;;;;;;25.26;25.56;101648.53;5110345;28;20034;-70
2022/05/19 09:23:47;;;;;;;1.90;0.70;;;;;;;25.27;25.09;101649.34;5109809;28;20028;-70
2022/05/19 09:26:47;;;;;;;3.17;0.90;;;;;;;25.35;25.13;101657.50;5109901;28;20093;-70
2022/05/19 09:29:19;;;;;;;3.78;1.00;;;;;;;25.45;24.62;101655.28;5110205;28;20023;-70
2022/05/19 09:32:13;;;;;;;5.18;1.25;;;;;;;25.47;24.66;101642.19;5109556;28;20024;-70
2022/05/19 09:34:51;;;;;;;1.00;0.63;;;;;;;25.49;24.54;101637.31;5089009;28;20587;-70
2022/05/19 09:37:40;;;;;;;4.30;1.20;;;;;;;25.48;24.46;101642.00;5109768;28;20059;-70
2022/05/19 09:40:12;;;;;;;4.75;0.70;;;;;;;25.41;24.53;101635.56;5109441;28;20032;-70
2022/05/19 09:42:56;;;;;;;2.58;0.82;;;;;;;25.45;24.85;101638.78;5109608;28;20036;-70
2022/05/19 09:45:26;;;;;;;0.73;0.70;;;;;;;25.50;24.59;101637.13;5091411;28;20065;-70
2022/05/19 09:47:57;;;;;;;1.65;0.88;;;;;;;25.45;24.51;101631.41;5109315;28;20031;-70
2022/05/19 09:50:25;;;;;;;1.65;0.75;;;;;;;25.45;24.40;101636.03;5109518;28;20474;-70
2022/05/19 09:52:58;;;;;;;4.60;1.00;;;;;;;25.44;24.44;101634.34;5109148;28;20483;-70
2022/05/19 09:55:24;;;;;;;1.00;0.90;;;;;;;25.41;24.37;101632.00;5109566;28;20041;-70
2022/05/19 09:57:50;;;;;;;2.60;0.90;;;;;;;25.42;24.48;101633.69;5109275;28;20035;-70
2022/05/19 10:00:22;;;;;;;2.35;1.00;;;;;;;25.41;24.31;101634.75;5109417;28;20020;-70
2022/05/19 10:02:55;;;;;;;0.95;0.77;;;;;;;25.38;24.25;101619.50;5109137;28;20027;-70
2022/05/19 10:05:20;;;;;;;1.13;0.65;;;;;;;25.48;24.29;101616.41;5109193;28;20028;-70
2022/05/19 10:07:49;;;;;;;1.15;0.55;;;;;;;25.52;23.54;101620.44;5090521;28;20034;-70
2022/05/19 10:10:24;;;;;;;1.15;0.63;;;;;;;25.53;23.28;101617.50;5109279;28;20023;-70
2022/05/19 10:12:50;;;;;;;1.90;0.65;;;;;;;25.57;23.23;101607.78;5109097;28;20032;-70
2022/05/19 10:15:19;;;;;;;3.20;0.98;;;;;;;25.61;23.36;101608.25;5109096;28;20024;-70
2022/05/19 10:18:32;;;;;;;2.83;0.70;;;;;;;25.65;23.39;101612.28;5090460;28;20841;-70
2022/05/19 10:21:35;;;;;;;2.47;0.70;;;;;;;25.68;23.64;101603.66;5100059;28;20035;-70
2022/05/19 10:24:20;;;;;;;3.70;0.77;;;;;;;25.74;23.84;101600.09;5109060;28;20023;-70
2022/05/19 10:33:10;;;;;;;1.67;0.82;;;;;;;25.79;23.91;101592.09;5108938;28;20104;-70
2022/05/19 10:35:59;;;;;;;3.88;0.90;;;;;;;25.77;23.93;101588.69;5108761;28;20051;-70
2022/05/19 10:39:04;;;;;;;1.85;0.80;;;;;;;25.75;24.08;101588.03;5108837;28;20035;-70
2022/05/19 10:41:34;;;;;;;1.27;0.70;;;;;;;25.78;23.78;101576.63;5067078;28;20087;-70
2022/05/19 10:44:19;;;;;;;1.70;0.60;;;;;;;25.77;23.86;101580.44;5108952;28;20071;-70
2022/05/19 10:47:22;;;;;;;1.95;0.93;;;;;;;25.81;23.81;101582.59;5108098;28;20068;-70
2022/05/19 10:50:08;;;;;;;3.22;0.77;;;;;;;25.81;23.81;101570.75;5024044;28;20118;-70
2022/05/19 10:52:54;;;;;;;4.53;0.98;;;;;;;25.83;23.71;101576.91;5108619;28;20044;-70
2022/05/19 10:55:33;;;;;;;4.80;0.88;;;;;;;25.85;23.68;101578.38;5089906;28;20027;-71
2022/05/19 10:58:14;;;;;;;1.65;0.70;;;;;;;25.85;23.23;101569.28;5108504;28;20039;-70
2022/05/19 11:00:45;;;;;;;1.65;0.82;;;;;;;25.82;23.23;101564.16;5108222;28;20029;-70
2022/05/19 11:03:13;;;;;;;2.88;0.60;;;;;;;25.81;23.44;101568.00;5089798;28;20042;-71
2022/05/19 11:06:16;;;;;;;4.72;0.80;;;;;;;25.82;23.38;101555.94;5089731;28;20019;-71
2022/05/19 11:08:52;;;;;;;3.53;1.08;;;;;;;25.84;23.25;101554.69;5089635;28;20050;-71
2022/05/19 11:11:56;;;;;;;3.58;1.25;;;;;;;25.84;22.33;101548.34;5089600;28;20042;-70
2022/05/19 11:14:28;;;;;;;3.13;0.80;;;;;;;25.86;22.01;101540.75;5108102;28;20035;-71
2022/05/19 11:17:10;;;;;;;4.72;1.00;;;;;;;25.87;22.52;101542.44;5089640;28;20035;-70
2022/05/19 11:19:45;;;;;;;0.90;0.80;;;;;;;25.84;22.71;101527.19;5089909;28;20027;-71
2022/05/19 11:22:20;;;;;;;1.80;0.70;;;;;;;25.92;23.16;101537.19;5107935;28;20028;-71
2022/05/19 11:27:48;;;;;;;2.33;0.65;;;;;;;25.95;23.28;101518.34;5108105;28;20038;-70
2022/05/19 11:30:19;;;;;;;2.70;0.70;;;;;;;25.94;23.43;101516.66;5108035;28;20039;-71
2022/05/19 11:32:50;;;;;;;1.23;0.80;;;;;;;26.03;23.36;101526.47;5107496;28;20031;-70
2022/05/19 11:35:29;;;;;;;1.30;0.80;;;;;;;26.07;23.46;101519.50;5108020;28;20019;-71
2022/05/19 11:38:03;;;;;;;1.80;0.90;;;;;;;26.10;23.52;101510.84;5110273;28;20039;-71
2022/05/19 11:40:49;;;;;;;2.70;1.05;;;;;;;26.16;23.57;101510.00;5094112;28;20035;-70
2022/05/19 11:43:30;;;;;;;1.42;0.90;;;;;;;26.19;23.27;101511.50;5093683;28;20039;-71
2022/05/19 11:46:06;;;;;;;1.75;0.80;;;;;;;26.14;23.09;101503.84;5111927;28;20542;-71
2022/05/19 11:57:34;;;;;;;1.50;0.77;;;;;;;25.83;22.40;101488.91;5112062;28;20084;-71
2022/05/19 12:00:03;;;;;;;7.28;1.00;;;;;;;25.81;21.96;101486.38;5111757;28;20035;-70
2022/05/19 12:03:04;;;;;;;2.38;1.10;;;;;;;25.81;21.88;101491.00;5112005;28;20032;-70
2022/05/19 12:05:36;;;;;;;3.78;1.00;;;;;;;25.81;22.04;101486.38;5106559;28;20059;-70